Time;durP1;ratioP1;P1;durP2;ratioP2;P2;SDS_P1;SDS_P2;PMS_P1;PMS_P2;Temp;Humidity;BMP_temperature;BMP_pressure;BME280_temperature;BME280_humidity;BME280_pressure;Samples;Min_cycle;Max_cycle;Signal;HPM_P1;HPM_P2
2022/02/19 00:01:40;;;;;;;15.63;2.47;;;;;;;5.51;71.38;67381.88;5025867;28;20060;-90
2022/02/19 00:04:06;;;;;;;12.40;2.33;;;;;;;5.47;71.82;67383.22;5028154;28;20046;-88
2022/02/19 00:06:37;;;;;;;15.57;2.88;;;;;;;5.49;72.67;67385.47;5012436;28;20033;-87
2022/02/19 00:09:03;;;;;;;12.10;2.33;;;;;;;5.46;73.02;67382.06;5032931;28;20064;-85
2022/02/19 00:11:28;;;;;;;8.45;1.23;;;;;;;;;;5029708;28;20052;-86
2022/02/19 00:13:54;;;;;;;12.98;2.92;;;;;;;5.44;73.32;67385.09;5026047;28;20048;-89
2022/02/19 00:16:20;;;;;;;13.52;2.25;;;;;;;5.42;73.19;67370.19;5047739;28;20043;-90
2022/02/19 00:18:46;;;;;;;12.07;1.60;;;;;;;5.39;72.50;67374.16;5017749;28;20116;-89
2022/02/19 00:21:11;;;;;;;10.70;2.63;;;;;;;5.35;72.91;67369.63;5007348;28;20452;-90
2022/02/19 00:23:36;;;;;;;7.97;2.13;;;;;;;;;;5030617;28;20045;-87
2022/02/19 00:26:02;;;;;;;14.15;1.90;;;;;;;;;;5053039;28;20056;-86
2022/02/19 00:28:27;;;;;;;14.45;2.38;;;;;;;5.34;75.53;67371.16;5045135;28;20448;-86
2022/02/19 00:30:54;;;;;;;13.65;2.80;;;;;;;;;;5016607;28;20051;-88
2022/02/19 00:33:20;;;;;;;10.00;2.08;;;;;;;;;;5021026;28;20045;-86
2022/02/19 00:35:47;;;;;;;8.43;2.33;;;;;;;;;;5013914;28;20144;-92
2022/02/19 00:38:13;;;;;;;10.57;2.45;;;;;;;5.25;74.30;67358.34;5023288;28;20095;-86
2022/02/19 00:40:38;;;;;;;9.73;2.33;;;;;;;5.24;75.30;67357.22;5012833;28;20402;-87
2022/02/19 00:43:22;;;;;;;11.05;2.00;;;;;;;5.24;75.72;67357.78;5031409;28;20682;-90
2022/02/19 00:45:49;;;;;;;13.65;2.60;;;;;;;5.16;74.02;67349.31;5026969;28;20053;-88
2022/02/19 00:48:23;;;;;;;7.40;1.50;;;;;;;5.17;74.47;67349.88;5006325;28;20061;-85
2022/02/19 00:50:50;;;;;;;8.05;1.75;;;;;;;;;;5025314;28;20128;-86
2022/02/19 00:53:16;;;;;;;15.13;2.35;;;;;;;5.17;74.65;67353.06;5031009;28;20048;-92
2022/02/19 00:55:42;;;;;;;7.47;1.38;;;;;;;5.16;74.17;67348.75;4995915;28;20046;-92
2022/02/19 00:58:09;;;;;;;10.07;1.80;;;;;;;5.15;74.50;67350.81;5032788;28;20029;-84
2022/02/19 01:00:39;;;;;;;14.52;2.13;;;;;;;;;;5008105;28;20556;-86
2022/02/19 01:03:04;;;;;;;;;;;;;;;5.19;74.75;67352.13;5038447;28;20054;-87
2022/02/19 01:05:32;;;;;;;12.98;2.58;;;;;;;5.12;75.42;67344.22;5029078;28;19971;-85
2022/02/19 01:07:58;;;;;;;9.95;1.98;;;;;;;5.12;75.14;67339.53;5009679;28;20087;-83
2022/02/19 01:10:24;;;;;;;10.30;2.85;;;;;;;5.15;74.80;67348.19;4999487;28;20045;-88
2022/02/19 01:12:50;;;;;;;8.75;2.20;;;;;;;5.18;74.26;67351.00;5028248;28;20037;-88
2022/02/19 01:15:16;;;;;;;8.45;1.13;;;;;;;5.17;73.67;67355.72;5038961;28;20045;-88
2022/02/19 01:17:42;;;;;;;12.40;2.80;;;;;;;5.19;74.68;67355.34;5045715;28;20549;-87
2022/02/19 01:20:09;;;;;;;10.05;1.65;;;;;;;5.17;74.63;67350.44;5016235;28;20137;-88
2022/02/19 01:22:35;;;;;;;13.55;2.15;;;;;;;5.18;75.49;67351.00;4999776;28;20045;-88
2022/02/19 01:25:02;;;;;;;9.07;1.55;;;;;;;5.14;74.89;67347.03;5040929;28;20044;-87
2022/02/19 01:27:28;;;;;;;8.68;1.85;;;;;;;;;;5036256;28;20040;-90
2022/02/19 01:29:53;;;;;;;10.43;1.95;;;;;;;;;;5015309;28;20049;-84
2022/02/19 01:32:19;;;;;;;11.98;2.13;;;;;;;5.18;76.35;67351.56;5028271;28;20072;-84
2022/02/19 01:34:44;;;;;;;11.07;1.30;;;;;;;;;;5028832;28;20432;-89
2022/02/19 01:37:17;;;;;;;8.82;2.58;;;;;;;5.16;76.34;67348.75;5055370;28;20103;-89
2022/02/19 01:39:44;;;;;;;9.45;2.08;;;;;;;5.12;76.70;67344.81;5051736;28;20045;-87
2022/02/19 01:42:10;;;;;;;13.00;2.50;;;;;;;5.11;76.49;67343.66;5037949;28;20041;-84
2022/02/19 01:44:43;;;;;;;12.50;2.80;;;;;;;5.12;77.30;67344.81;5032883;28;20509;-87
2022/02/19 01:47:10;;;;;;;12.40;2.85;;;;;;;5.15;77.55;67348.19;5043606;28;20111;-85
2022/02/19 01:49:35;;;;;;;9.75;2.28;;;;;;;5.15;78.82;67350.25;5011461;28;20068;-93
2022/02/19 01:52:01;;;;;;;10.15;2.03;;;;;;;5.13;77.79;67345.38;5013381;28;20482;-88
2022/02/19 01:54:27;;;;;;;9.07;2.08;;;;;;;5.09;77.83;67341.41;5029739;28;20565;-89
2022/02/19 01:56:53;;;;;;;12.05;2.42;;;;;;;5.12;79.39;67349.50;5045361;28;20041;-87
2022/02/19 01:59:19;;;;;;;9.95;2.35;;;;;;;5.07;78.18;67341.78;5029223;28;20401;-88
2022/02/19 02:01:45;;;;;;;9.30;1.90;;;;;;;5.07;77.22;67341.22;5048598;28;20044;-86
2022/02/19 02:04:10;;;;;;;9.35;2.83;;;;;;;5.09;77.29;67348.75;5022658;28;20053;-86
2022/02/19 02:06:36;;;;;;;12.50;2.67;;;;;;;5.08;78.33;67340.28;5005525;28;20062;-84
2022/02/19 02:09:02;;;;;;;11.82;1.83;;;;;;;5.03;77.06;67334.63;5025679;28;20045;-85
2022/02/19 02:11:28;;;;;;;6.20;1.40;;;;;;;5.06;77.96;67332.72;5033454;28;20055;-87
2022/02/19 02:13:53;;;;;;;10.85;1.92;;;;;;;;;;5028406;28;20045;-84
2022/02/19 02:16:19;;;;;;;10.20;1.83;;;;;;;5.04;78.12;67335.75;5016675;28;20400;-89
2022/02/19 02:18:45;;;;;;;12.10;2.10;;;;;;;5.02;77.56;67333.50;5029864;28;20042;-88
2022/02/19 02:21:11;;;;;;;10.50;2.75;;;;;;;5.06;79.52;67337.44;5023173;28;20052;-87
2022/02/19 02:23:36;;;;;;;6.43;2.00;;;;;;;5.02;78.65;67333.50;5042720;28;20091;-89
2022/02/19 02:26:03;;;;;;;9.13;2.13;;;;;;;5.03;78.81;67339.34;5033642;28;20037;-84
2022/02/19 02:28:29;;;;;;;5.10;1.70;;;;;;;5.03;77.84;67334.63;5033666;28;20041;-87
2022/02/19 02:30:54;;;;;;;9.38;1.55;;;;;;;4.96;76.32;67329.38;5058633;28;20106;-87
2022/02/19 02:33:24;;;;;;;12.02;2.47;;;;;;;4.99;78.25;67330.13;5040834;28;20037;-91
2022/02/19 02:35:50;;;;;;;9.57;2.22;;;;;;;;;;5033026;28;20045;-86
2022/02/19 02:38:16;;;;;;;6.20;1.60;;;;;;;4.97;77.17;67330.47;5037425;28;20106;-92
2022/02/19 02:40:41;;;;;;;7.75;2.08;;;;;;;4.97;76.47;67322.56;5037766;28;20042;-86
2022/02/19 02:43:07;;;;;;;9.80;1.90;;;;;;;4.96;77.60;67322.00;5025464;28;20489;-84
2022/02/19 02:45:33;;;;;;;8.80;1.73;;;;;;;4.95;77.26;67326.16;5031363;28;20073;-84
2022/02/19 02:47:58;;;;;;;7.25;1.63;;;;;;;4.91;77.22;67321.63;5028825;28;20095;-88
2022/02/19 02:50:24;;;;;;;11.65;2.17;;;;;;;4.92;78.19;67322.19;4999967;28;20418;-87
2022/02/19 02:52:49;;;;;;;6.65;1.45;;;;;;;4.85;76.01;67314.31;5039547;28;20052;-87
2022/02/19 02:55:15;;;;;;;9.52;1.48;;;;;;;4.87;76.94;67317.13;5045104;28;20047;-88
2022/02/19 02:57:41;;;;;;;5.32;1.48;;;;;;;4.82;76.06;67314.09;5012905;28;20061;-90
2022/02/19 03:00:10;;;;;;;6.20;1.40;;;;;;;4.82;76.16;67311.47;5038767;28;20041;-91
2022/02/19 03:02:37;;;;;;;3.63;1.42;;;;;;;4.80;76.57;67308.66;5040155;28;20044;-84
2022/02/19 03:05:04;;;;;;;6.35;1.33;;;;;;;4.75;76.60;67303.59;5032768;28;20045;-85
2022/02/19 03:07:30;;;;;;;9.88;1.75;;;;;;;4.79;77.17;67307.53;5038111;28;20060;-87
2022/02/19 03:09:56;;;;;;;10.32;1.67;;;;;;;4.78;77.25;67306.41;5021537;28;20068;-87
2022/02/19 03:12:21;;;;;;;5.18;0.85;;;;;;;;;;5049533;28;20041;-88
2022/02/19 03:14:47;;;;;;;9.82;1.67;;;;;;;4.75;78.11;67304.13;5030060;28;20049;-90
2022/02/19 03:17:12;;;;;;;10.60;2.05;;;;;;;4.72;77.49;67300.75;5028415;28;20044;-88
2022/02/19 03:19:37;;;;;;;8.48;1.58;;;;;;;;;;5026913;28;20037;-87
2022/02/19 03:22:02;;;;;;;9.98;1.80;;;;;;;;;;5037164;28;20095;-87
2022/02/19 03:24:28;;;;;;;6.32;1.60;;;;;;;4.74;78.33;67302.44;5023212;28;20052;-84
2022/02/19 03:26:53;;;;;;;7.38;1.52;;;;;;;4.73;79.01;67303.94;5015973;28;20187;-90
2022/02/19 03:29:25;;;;;;;10.30;1.98;;;;;;;4.77;79.71;67305.25;4991826;28;20053;-86
2022/02/19 03:31:50;;;;;;;5.88;1.30;;;;;;;;;;5007919;28;20041;-85
2022/02/19 03:34:16;;;;;;;9.02;1.88;;;;;;;4.73;78.33;67304.50;5008519;28;20056;-87
2022/02/19 03:36:54;;;;;;;9.43;1.45;;;;;;;4.75;77.09;67304.13;5029018;28;20052;-90
2022/02/19 03:39:27;;;;;;;6.15;1.27;;;;;;;4.78;77.73;67309.59;5025648;28;20049;-86
2022/02/19 03:41:57;;;;;;;12.75;1.60;;;;;;;;;;4997250;28;20081;-89
2022/02/19 03:44:22;;;;;;;3.08;1.17;;;;;;;4.81;76.53;67309.78;5014065;28;20081;-91
2022/02/19 03:46:52;;;;;;;6.43;1.40;;;;;;;;;;5012548;28;20064;-89
2022/02/19 03:49:26;;;;;;;7.10;1.55;;;;;;;4.81;75.23;67310.34;5021920;28;20061;-87
2022/02/19 03:52:04;;;;;;;10.18;2.33;;;;;;;4.83;75.75;67312.59;5027319;28;20137;-89
2022/02/19 03:54:29;;;;;;;12.43;1.90;;;;;;;4.85;76.80;67314.31;5007315;28;20509;-89
2022/02/19 03:56:56;;;;;;;6.28;1.92;;;;;;;4.85;76.09;67320.13;5007451;28;20057;-85
2022/02/19 03:59:29;;;;;;;4.65;1.30;;;;;;;;;;5026127;28;20135;-90
2022/02/19 04:01:57;;;;;;;11.48;1.65;;;;;;;4.86;75.22;67315.41;5019163;28;20069;-86
2022/02/19 04:04:24;;;;;;;7.57;1.58;;;;;;;;;;4989146;28;20038;-87
2022/02/19 04:06:57;;;;;;;10.38;1.17;;;;;;;4.84;75.45;67313.75;5025884;28;20060;-87
2022/02/19 04:09:25;;;;;;;7.47;1.70;;;;;;;4.84;75.22;67313.19;5018851;28;20506;-87
2022/02/19 04:11:55;;;;;;;7.70;1.55;;;;;;;;;;5030950;28;20386;-86
2022/02/19 04:14:22;;;;;;;9.05;1.73;;;;;;;;;;5044630;28;20049;-89
2022/02/19 04:16:47;;;;;;;8.95;1.48;;;;;;;4.84;75.55;67313.19;5015650;28;20041;-87
2022/02/19 04:19:13;;;;;;;7.47;1.85;;;;;;;4.88;76.55;67317.69;5020862;28;20055;-86
2022/02/19 04:21:39;;;;;;;9.88;1.55;;;;;;;;;;5021412;28;20490;-88
2022/02/19 04:24:10;;;;;;;7.07;1.83;;;;;;;4.84;76.21;67308.47;5014320;28;20156;-86
2022/02/19 04:26:38;;;;;;;10.63;1.90;;;;;;;4.88;77.05;67320.88;5046772;28;20167;-86
2022/02/19 04:29:06;;;;;;;8.82;1.77;;;;;;;4.83;75.69;67317.31;4999378;28;20046;-85
2022/02/19 04:31:31;;;;;;;10.98;1.83;;;;;;;;;;5016039;28;20042;-87
2022/02/19 04:33:58;;;;;;;14.02;2.80;;;;;;;4.85;78.12;67314.84;5015360;28;20053;-88
2022/02/19 04:36:24;;;;;;;8.35;3.03;;;;;;;;;;5005564;28;20136;-89
2022/02/19 04:38:55;;;;;;;9.98;2.75;;;;;;;4.82;77.75;67310.91;5017420;28;20046;-87
2022/02/19 04:41:21;;;;;;;6.97;2.03;;;;;;;4.80;78.51;67308.66;5033716;28;20064;-85
2022/02/19 04:43:46;;;;;;;11.73;2.17;;;;;;;;;;5030700;28;20045;-84
2022/02/19 04:46:26;;;;;;;6.35;1.90;;;;;;;4.78;77.37;67306.41;5031281;28;20048;-89
2022/02/19 04:48:51;;;;;;;9.48;2.00;;;;;;;4.79;78.13;67308.09;5040891;28;20049;-89
2022/02/19 04:51:17;;;;;;;5.53;2.17;;;;;;;4.77;76.36;67307.91;5028679;28;20454;-91
2022/02/19 04:53:48;;;;;;;4.90;1.27;;;;;;;4.75;76.87;67303.59;5003933;28;20052;-86
2022/02/19 04:56:15;;;;;;;9.13;1.92;;;;;;;;;;4999199;28;20052;-85
2022/02/19 04:58:41;;;;;;;14.45;2.85;;;;;;;4.80;79.14;67308.66;5025181;28;20046;-84
2022/02/19 05:01:06;;;;;;;11.93;2.90;;;;;;;4.75;79.14;67311.50;5006878;28;20054;-83
2022/02/19 05:03:35;;;;;;;7.93;2.00;;;;;;;4.68;79.55;67296.22;5033164;28;20068;-89
2022/02/19 05:06:01;;;;;;;10.88;1.85;;;;;;;4.61;79.63;67282.50;5031643;28;20604;-84
2022/02/19 05:08:28;;;;;;;8.85;3.03;;;;;;;4.53;82.24;67279.84;5042802;28;20403;-84
2022/02/19 05:10:53;;;;;;;10.48;2.33;;;;;;;4.47;82.85;67272.53;5041417;28;20041;-88
2022/02/19 05:13:25;;;;;;;14.50;2.33;;;;;;;4.44;83.43;67274.41;4993363;28;20157;-84
2022/02/19 05:15:51;;;;;;;11.98;2.00;;;;;;;4.45;83.94;67273.47;5016674;28;20033;-87
2022/02/19 05:18:17;;;;;;;11.30;2.28;;;;;;;4.46;84.07;67271.38;4997452;28;20046;-85
2022/02/19 05:20:44;;;;;;;15.27;2.65;;;;;;;4.50;84.09;67275.91;4997730;28;20048;-85
2022/02/19 05:23:11;;;;;;;16.67;2.97;;;;;;;4.48;82.86;67278.91;5028095;28;20466;-84
2022/02/19 05:25:40;;;;;;;10.40;2.13;;;;;;;;;;4991012;28;20041;-85
2022/02/19 05:28:07;;;;;;;9.55;1.80;;;;;;;4.41;82.17;67260.47;5027972;28;20048;-84
2022/02/19 05:30:34;;;;;;;7.93;2.03;;;;;;;4.28;83.90;67252.19;4995691;28;20049;-85
2022/02/19 05:33:01;;;;;;;14.20;1.38;;;;;;;;;;5033164;28;20113;-86
2022/02/19 05:35:33;;;;;;;14.85;2.70;;;;;;;4.19;85.73;67241.47;5033004;28;20092;-84
2022/02/19 05:37:58;;;;;;;12.10;2.30;;;;;;;;;;5021224;28;20046;-86
2022/02/19 05:40:32;;;;;;;10.43;2.38;;;;;;;4.24;84.71;67250.31;5026182;28;20088;-86
2022/02/19 05:42:58;;;;;;;13.98;2.95;;;;;;;4.24;85.16;67247.13;5015051;28;20132;-86
2022/02/19 05:45:25;;;;;;;8.32;2.33;;;;;;;4.21;85.38;67244.31;5027523;28;20103;-87
2022/02/19 05:47:52;;;;;;;11.65;2.22;;;;;;;4.18;84.59;67243.56;5013377;28;20045;-85
2022/02/19 05:50:17;;;;;;;14.52;3.10;;;;;;;;;;5006702;28;20049;-87
2022/02/19 05:52:42;;;;;;;11.60;2.60;;;;;;;;;;5012829;28;20053;-85
2022/02/19 05:55:09;;;;;;;8.30;1.65;;;;;;;4.22;82.25;67247.50;5010771;28;20045;-87
2022/02/19 05:57:43;;;;;;;8.60;1.85;;;;;;;4.25;82.20;67248.25;5032488;28;20553;-88
2022/02/19 06:00:11;;;;;;;9.80;1.55;;;;;;;4.26;82.76;67252.59;5029419;28;20047;-86
2022/02/19 06:02:43;;;;;;;8.10;1.67;;;;;;;4.26;81.65;67249.94;5026136;28;20125;-87
2022/02/19 06:05:10;;;;;;;10.43;1.52;;;;;;;4.30;81.59;67257.09;4994442;28;20371;-85
2022/02/19 06:07:36;;;;;;;10.68;2.42;;;;;;;4.35;81.65;67261.63;5025517;28;20038;-84
2022/02/19 06:10:03;;;;;;;7.60;1.83;;;;;;;4.35;81.72;67259.53;5031057;28;20552;-88
2022/02/19 06:12:35;;;;;;;13.95;2.22;;;;;;;4.37;79.98;67261.22;5011413;28;20049;-85
2022/02/19 06:15:01;;;;;;;8.02;1.67;;;;;;;;;;5012822;28;20425;-85
2022/02/19 06:17:27;;;;;;;8.38;1.95;;;;;;;4.38;78.16;67262.94;5024378;28;20092;-88
2022/02/19 06:20:03;;;;;;;8.00;1.75;;;;;;;4.40;78.50;67264.63;5023744;28;20089;-88
2022/02/19 06:22:37;;;;;;;10.60;3.08;;;;;;;4.41;79.18;67266.31;5023697;28;20041;-87
2022/02/19 06:25:03;;;;;;;14.32;1.90;;;;;;;4.40;78.96;67269.88;5011848;28;20037;-85
2022/02/19 06:27:32;;;;;;;9.30;1.88;;;;;;;;;;5019728;28;20041;-85
2022/02/19 06:30:03;;;;;;;10.55;2.33;;;;;;;4.41;78.92;67265.75;5029132;28;20082;-86
2022/02/19 06:32:37;;;;;;;15.02;2.75;;;;;;;;;;4994771;28;20046;-90
2022/02/19 06:35:09;;;;;;;9.63;1.50;;;;;;;;;;5013299;28;20048;-87
2022/02/19 06:37:44;;;;;;;8.02;1.50;;;;;;;4.41;79.26;67271.59;5014522;28;20045;-89
2022/02/19 06:40:11;;;;;;;8.27;1.90;;;;;;;4.40;79.65;67265.19;5006933;28;20049;-86
2022/02/19 06:42:38;;;;;;;9.98;1.63;;;;;;;4.40;79.21;67264.63;5006831;28;20214;-83
2022/02/19 06:45:04;;;;;;;5.47;1.80;;;;;;;;;;5014628;28;20042;-85
2022/02/19 06:47:30;;;;;;;7.70;2.00;;;;;;;4.44;79.98;67269.13;5015949;28;20506;-86
2022/02/19 06:50:00;;;;;;;10.85;1.55;;;;;;;4.43;78.25;67263.31;5001748;28;20085;-83
2022/02/19 06:52:27;;;;;;;5.53;1.83;;;;;;;4.46;78.54;67271.38;4993767;28;20110;-88
2022/02/19 06:54:52;;;;;;;10.63;1.77;;;;;;;;;;4990451;28;20038;-89
2022/02/19 06:57:21;;;;;;;8.63;2.05;;;;;;;4.46;78.81;67271.38;4997210;28;20041;-88
2022/02/19 06:59:50;;;;;;;12.27;1.98;;;;;;;4.45;78.83;67270.81;5007418;28;20042;-87
2022/02/19 07:02:16;;;;;;;9.50;2.13;;;;;;;;;;5009412;28;20411;-89
2022/02/19 07:04:41;;;;;;;12.40;2.10;;;;;;;4.48;81.13;67276.28;5012406;28;20042;-91
2022/02/19 07:07:07;;;;;;;7.93;2.15;;;;;;;4.45;81.37;67270.25;5008520;28;20097;-87
2022/02/19 07:09:32;;;;;;;11.60;2.50;;;;;;;4.40;80.55;67267.25;5025111;28;20045;-90
2022/02/19 07:11:57;;;;;;;17.95;2.67;;;;;;;4.40;82.34;67265.19;5029478;28;20104;-85
2022/02/19 07:14:23;;;;;;;10.40;1.70;;;;;;;4.37;82.08;67261.22;5026187;28;20045;-87
2022/02/19 07:16:49;;;;;;;9.43;2.00;;;;;;;4.35;81.76;67259.53;5013375;28;20139;-88
2022/02/19 07:19:15;;;;;;;12.85;2.40;;;;;;;4.35;82.69;67264.81;5027301;28;20046;-89
2022/02/19 07:21:40;;;;;;;12.15;2.20;;;;;;;4.38;82.14;67262.94;5032074;28;20065;-87
2022/02/19 07:24:06;;;;;;;7.57;1.90;;;;;;;4.38;81.61;67267.63;5024584;28;20048;-89
2022/02/19 07:26:32;;;;;;;9.00;1.80;;;;;;;4.41;81.75;67261.03;5039097;28;20099;-88
2022/02/19 07:28:57;;;;;;;12.63;2.88;;;;;;;4.43;81.63;67268.00;5024814;28;20486;-86
2022/02/19 07:31:22;;;;;;;12.63;2.15;;;;;;;4.45;82.03;67270.25;5013462;28;20041;-87
2022/02/19 07:33:48;;;;;;;8.68;1.73;;;;;;;4.43;81.91;67268.59;5013503;28;20042;-87
2022/02/19 07:36:13;;;;;;;13.68;1.83;;;;;;;;;;4997808;28;20379;-87
2022/02/19 07:38:39;;;;;;;12.73;2.40;;;;;;;4.46;82.55;67271.97;5001793;28;20368;-86
2022/02/19 07:41:06;;;;;;;18.65;2.92;;;;;;;4.45;82.32;67270.25;4984113;28;20050;-85
2022/02/19 07:43:33;;;;;;;10.25;2.50;;;;;;;4.45;82.92;67270.25;4999755;28;20044;-86
2022/02/19 07:45:59;;;;;;;14.25;2.28;;;;;;;4.45;82.66;67270.25;5001937;28;20054;-83
2022/02/19 07:48:25;;;;;;;6.63;1.67;;;;;;;4.46;82.28;67271.38;5006343;28;20038;-86
2022/02/19 07:59:11;;;;;;;9.25;1.55;;;;;;;4.33;83.82;67259.34;5014515;28;20056;-85
2022/02/19 08:01:43;;;;;;;12.88;2.25;;;;;;;4.34;84.52;67257.84;5027259;28;20037;-84
2022/02/19 08:04:14;;;;;;;9.80;2.15;;;;;;;4.36;84.11;67262.75;5033972;28;20053;-86
2022/02/19 08:06:39;;;;;;;15.05;2.72;;;;;;;4.40;84.14;67259.34;4987103;28;20041;-86
2022/02/19 08:09:05;;;;;;;14.63;2.55;;;;;;;;;;5011445;28;20056;-83
2022/02/19 08:11:39;;;;;;;14.00;2.67;;;;;;;4.52;83.72;67280.81;5039953;28;20041;-87
2022/02/19 08:14:09;;;;;;;9.88;1.80;;;;;;;4.52;82.27;67280.81;5007984;28;20052;-84
2022/02/19 08:16:42;;;;;;;18.40;2.70;;;;;;;4.57;81.87;67289.06;5003443;28;20104;-86
2022/02/19 08:19:07;;;;;;;13.45;1.95;;;;;;;4.60;81.67;67287.19;5010011;28;20402;-86
2022/02/19 08:21:35;;;;;;;9.50;1.95;;;;;;;4.65;81.04;67294.91;4996028;28;20034;-89
2022/02/19 08:24:00;;;;;;;13.05;3.17;;;;;;;4.67;81.91;67295.09;5035238;28;20033;-84
2022/02/19 08:26:27;;;;;;;9.68;2.00;;;;;;;4.69;80.91;67296.78;5028630;28;20474;-86
2022/02/19 08:28:53;;;;;;;8.23;1.90;;;;;;;4.71;80.89;67299.06;5037694;28;20053;-85
2022/02/19 08:31:20;;;;;;;16.00;2.00;;;;;;;4.71;80.63;67299.63;5004370;28;20068;-86
2022/02/19 08:33:46;;;;;;;8.80;1.88;;;;;;;4.69;80.25;67297.38;5031724;28;20037;-86
2022/02/19 08:36:18;;;;;;;9.32;2.15;;;;;;;4.73;80.77;67301.88;5024490;28;20045;-85
2022/02/19 08:38:49;;;;;;;8.02;1.60;;;;;;;4.70;79.99;67297.94;5043273;28;20064;-84
2022/02/19 08:41:15;;;;;;;13.43;1.77;;;;;;;4.74;80.78;67303.00;5005174;28;20073;-86
2022/02/19 08:43:40;;;;;;;6.68;1.48;;;;;;;4.78;81.32;67306.97;4997337;28;20060;-83
2022/02/19 08:46:10;;;;;;;15.52;1.85;;;;;;;4.76;80.25;67304.69;5032575;28;20082;-86
2022/02/19 08:48:36;;;;;;;9.10;2.75;;;;;;;4.79;81.17;67307.53;5021497;28;20042;-88
2022/02/19 08:51:03;;;;;;;11.73;2.13;;;;;;;4.79;80.10;67310.72;5014159;28;20045;-87
2022/02/19 08:53:29;;;;;;;10.32;2.20;;;;;;;4.79;79.99;67307.53;5029809;28;20057;-84
2022/02/19 08:55:57;;;;;;;10.43;2.95;;;;;;;4.78;80.77;67309.03;5021540;28;20041;-85
2022/02/19 08:58:24;;;;;;;11.10;2.35;;;;;;;;;;5031028;28;20111;-87
2022/02/19 09:00:49;;;;;;;8.18;1.70;;;;;;;4.84;81.39;67313.19;5031740;28;20042;-88
2022/02/19 09:03:20;;;;;;;14.73;2.65;;;;;;;4.75;82.37;67306.78;5009778;28;20049;-87
2022/02/19 09:05:46;;;;;;;7.28;1.70;;;;;;;4.70;82.89;67297.94;5014739;28;20037;-88
2022/02/19 09:08:11;;;;;;;10.55;2.28;;;;;;;;;;5023768;28;20065;-88
2022/02/19 09:10:39;;;;;;;13.35;1.77;;;;;;;4.66;85.00;67296.63;5011847;28;20123;-87
2022/02/19 09:13:04;;;;;;;14.50;2.65;;;;;;;4.65;85.86;67292.84;5014452;28;20045;-83
2022/02/19 09:15:30;;;;;;;13.82;1.95;;;;;;;4.63;85.34;67292.66;5035275;28;20041;-86
2022/02/19 09:17:57;;;;;;;11.05;2.30;;;;;;;4.64;86.66;67291.72;5029380;28;20097;-82
2022/02/19 09:20:22;;;;;;;12.57;2.67;;;;;;;4.64;85.59;67294.34;5018574;28;20080;-83
2022/02/19 09:22:49;;;;;;;10.93;4.03;;;;;;;4.71;86.74;67299.63;5032150;28;20041;-84
2022/02/19 09:25:22;;;;;;;12.10;2.53;;;;;;;4.65;85.13;67292.84;5033475;28;20037;-83
2022/02/19 09:27:49;;;;;;;10.75;2.45;;;;;;;4.64;85.49;67294.34;5012031;28;20045;-83
2022/02/19 09:30:14;;;;;;;12.43;2.35;;;;;;;4.66;85.86;67296.63;5004499;28;20050;-83
2022/02/19 09:32:42;;;;;;;11.48;2.10;;;;;;;;;;5014732;28;20072;-83
2022/02/19 09:35:12;;;;;;;12.15;2.05;;;;;;;4.72;86.40;67300.19;5016709;28;20499;-83
2022/02/19 09:37:39;;;;;;;5.32;2.00;;;;;;;4.77;85.35;67305.25;5019544;28;20068;-83
2022/02/19 09:40:07;;;;;;;12.25;2.22;;;;;;;4.84;86.29;67313.19;5015338;28;20042;-83
2022/02/19 09:42:35;;;;;;;10.07;1.88;;;;;;;4.83;85.29;67307.31;5025152;28;20101;-83
2022/02/19 09:45:02;;;;;;;9.05;2.28;;;;;;;4.86;85.07;67316.00;4971439;28;1189553;-83
2022/02/19 09:47:29;;;;;;;11.88;3.00;;;;;;;4.93;85.37;67328.63;5013780;28;20110;-83
2022/02/19 09:49:56;;;;;;;14.40;3.10;;;;;;;4.92;85.75;67322.19;5031100;28;20065;-83
2022/02/19 09:52:26;;;;;;;13.20;2.42;;;;;;;5.00;86.01;67331.22;5038609;28;20092;-83
2022/02/19 09:54:55;;;;;;;13.50;3.08;;;;;;;5.02;83.73;67333.50;5033859;28;20499;-83
2022/02/19 09:57:22;;;;;;;8.68;2.15;;;;;;;5.06;83.64;67340.09;5019024;28;20046;-83
2022/02/19 09:59:47;;;;;;;12.05;2.65;;;;;;;;;;5019166;28;20051;-83
2022/02/19 10:02:17;;;;;;;7.60;2.42;;;;;;;5.23;84.14;67358.72;5032318;28;20042;-83
2022/02/19 10:04:47;;;;;;;10.52;1.90;;;;;;;5.23;82.90;67359.28;5024438;28;20103;-84
2022/02/19 10:07:16;;;;;;;8.93;2.63;;;;;;;5.23;83.12;67358.72;5016746;28;20050;-84
2022/02/19 10:09:42;;;;;;;12.73;2.95;;;;;;;;;;5018983;28;20053;-84
2022/02/19 10:12:11;;;;;;;6.85;1.52;;;;;;;5.44;81.00;67379.81;5016700;28;20088;-83
2022/02/19 10:14:48;;;;;;;13.07;2.83;;;;;;;5.51;81.40;67387.16;5012640;28;20089;-83
2022/02/19 10:17:20;;;;;;;10.88;3.00;;;;;;;5.65;80.61;67402.97;5010988;28;20042;-84
2022/02/19 10:20:02;;;;;;;11.82;1.90;;;;;;;5.58;80.01;67395.66;5028114;28;20049;-83
2022/02/19 10:22:30;;;;;;;12.15;2.30;;;;;;;5.78;80.16;67417.09;5034342;28;20048;-83
2022/02/19 10:25:07;;;;;;;7.65;1.80;;;;;;;5.76;77.08;67415.41;5037180;28;20046;-84
2022/02/19 10:27:49;;;;;;;5.95;1.70;;;;;;;5.69;77.41;67406.94;5037975;28;20041;-83
2022/02/19 10:30:17;;;;;;;9.43;2.15;;;;;;;5.70;77.72;67408.06;5053123;28;20061;-83
2022/02/19 10:32:46;;;;;;;9.30;2.10;;;;;;;5.68;76.18;67405.81;5042457;28;20057;-83
2022/02/19 10:35:12;;;;;;;10.90;1.90;;;;;;;;;;5032153;28;20050;-84
2022/02/19 10:37:41;;;;;;;12.82;2.58;;;;;;;;;;5034960;28;20109;-83
2022/02/19 10:40:07;;;;;;;;;;;;;;;5.85;77.34;67425.59;5035237;28;20037;-83
2022/02/19 10:42:34;;;;;;;9.13;2.15;;;;;;;;;;5035783;28;19952;-83
2022/02/19 10:45:09;;;;;;;13.02;3.15;;;;;;;;;;5052702;28;20498;-83
2022/02/19 10:47:35;;;;;;;10.32;2.17;;;;;;;6.03;76.69;67445.38;5048697;28;20207;-84
2022/02/19 10:50:16;;;;;;;13.52;2.63;;;;;;;6.05;77.67;67447.66;5039368;28;20083;-84
2022/02/19 10:52:50;;;;;;;8.77;2.13;;;;;;;6.14;76.35;67456.69;5037883;28;20069;-83
2022/02/19 10:55:23;;;;;;;7.47;1.73;;;;;;;6.06;75.55;67448.78;5055061;28;20565;-83
2022/02/19 10:57:55;;;;;;;10.32;2.15;;;;;;;5.97;75.02;67433.31;5035685;28;20045;-84
2022/02/19 11:00:24;;;;;;;6.43;1.80;;;;;;;6.00;76.83;67441.44;5037753;28;20057;-84
2022/02/19 11:02:59;;;;;;;9.57;2.40;;;;;;;6.04;77.31;67446.53;5036491;28;20557;-83
2022/02/19 11:05:24;;;;;;;7.82;2.00;;;;;;;6.07;75.24;67444.63;5041861;28;20053;-85
2022/02/19 11:07:51;;;;;;;9.77;1.30;;;;;;;6.19;73.70;67462.34;5036467;28;20525;-83
2022/02/19 11:10:19;;;;;;;9.70;1.40;;;;;;;;;;5053360;28;20048;-83
2022/02/19 11:12:46;;;;;;;7.80;1.88;;;;;;;6.08;71.13;67450.47;5039438;28;20064;-84
2022/02/19 11:15:13;;;;;;;13.90;2.03;;;;;;;;;;5025261;28;20043;-84
2022/02/19 11:17:40;;;;;;;10.75;2.00;;;;;;;6.02;70.59;67444.25;5040972;28;20044;-84
2022/02/19 11:20:13;;;;;;;9.02;1.70;;;;;;;;;;5039560;28;20038;-83
2022/02/19 11:22:45;;;;;;;7.00;2.17;;;;;;;;;;5028936;28;20083;-83
2022/02/19 11:25:16;;;;;;;8.48;1.52;;;;;;;6.24;74.65;67468.00;5055107;28;20137;-83
2022/02/19 11:28:01;;;;;;;8.60;1.63;;;;;;;;;;5030237;28;20041;-84
2022/02/19 11:30:31;;;;;;;10.00;2.25;;;;;;;6.20;74.27;67463.47;5030062;28;20113;-84
2022/02/19 11:32:58;;;;;;;11.52;2.20;;;;;;;;;;5023336;28;20329;-84
2022/02/19 11:35:40;;;;;;;13.40;2.22;;;;;;;6.09;75.94;67451.59;5034211;28;20033;-84
2022/02/19 11:38:25;;;;;;;10.85;2.30;;;;;;;6.21;75.59;67459.88;5011511;28;20096;-84
2022/02/19 11:40:53;;;;;;;7.75;1.80;;;;;;;6.38;73.93;67478.53;5022846;28;20042;-84
2022/02/19 11:43:39;;;;;;;11.27;3.83;;;;;;;;;;5017826;28;20085;-84
2022/02/19 11:46:25;;;;;;;8.88;2.10;;;;;;;;;;5024347;28;20050;-84
2022/02/19 11:48:51;;;;;;;7.90;2.10;;;;;;;6.46;74.20;67487.03;5010102;28;20089;-84
2022/02/19 11:51:20;;;;;;;10.68;2.63;;;;;;;;;;5019595;28;20042;-84
2022/02/19 11:53:51;;;;;;;10.67;2.03;;;;;;;6.59;75.52;67506.44;5048697;28;20050;-84
2022/02/19 11:56:42;;;;;;;9.00;2.17;;;;;;;6.68;69.88;67519.84;5037705;28;20120;-84
2022/02/19 11:59:16;;;;;;;10.75;2.25;;;;;;;;;;5031047;28;20048;-83
2022/02/19 12:02:04;;;;;;;7.00;2.22;;;;;;;6.85;71.63;67535.88;5025071;28;20052;-84
2022/02/19 12:04:29;;;;;;;9.55;2.63;;;;;;;6.95;67.77;67547.16;5039918;28;20562;-84
2022/02/19 12:07:07;;;;;;;9.80;1.65;;;;;;;;;;5023533;28;20045;-84
2022/02/19 12:09:34;;;;;;;8.82;2.05;;;;;;;7.15;69.04;67571.31;5047669;28;20048;-84
2022/02/19 12:12:03;;;;;;;6.78;1.08;;;;;;;;;;5033556;28;20041;-84
2022/02/19 12:14:47;;;;;;;6.60;1.73;;;;;;;7.13;69.20;67566.41;5033684;28;20049;-84
2022/02/19 12:17:16;;;;;;;6.80;1.80;;;;;;;;;;5038030;28;20053;-84
2022/02/19 12:20:05;;;;;;;8.23;1.73;;;;;;;;;;5033169;28;20045;-84
2022/02/19 12:22:30;;;;;;;;;;;;;;;6.95;71.05;67538.66;5041435;28;20129;-84
2022/02/19 12:24:59;;;;;;;4.78;1.42;;;;;;;7.01;70.82;67548.66;5034587;28;19944;-84